createdAt,value
2019-03-20T00:00:18.740Z,0
2019-03-20T00:00:45.184Z,0
2019-03-20T00:01:12.522Z,0
2019-03-20T00:01:43.801Z,0
2019-03-20T00:02:07.087Z,0
2019-03-20T00:02:33.385Z,0
2019-03-20T00:02:59.853Z,0
2019-03-20T00:03:26.322Z,0
2019-03-20T00:03:52.625Z,0
2019-03-20T00:04:19.079Z,0
2019-03-20T00:04:49.856Z,0
2019-03-20T00:05:13.553Z,0
2019-03-20T00:05:39.880Z,0
2019-03-20T00:06:06.191Z,0
2019-03-20T00:06:32.490Z,0
2019-03-20T00:06:58.859Z,0
2019-03-20T00:07:25.154Z,0
2019-03-20T00:07:51.727Z,0
2019-03-20T00:08:18.192Z,0
2019-03-20T00:08:44.681Z,0
2019-03-20T00:09:11.095Z,0
2019-03-20T00:09:37.311Z,0
2019-03-20T00:10:03.688Z,0
2019-03-20T00:10:30.202Z,0
2019-03-20T00:10:56.710Z,0
2019-03-20T00:11:23.341Z,0
2019-03-20T00:11:49.765Z,0
2019-03-20T00:12:15.997Z,0
2019-03-20T00:12:42.275Z,0
2019-03-20T00:13:08.505Z,0
2019-03-20T00:13:34.600Z,0
2019-03-20T00:14:00.720Z,0
2019-03-20T00:14:26.812Z,0
2019-03-20T00:14:52.905Z,0
2019-03-20T00:15:18.999Z,0
2019-03-20T00:15:45.088Z,0
2019-03-20T00:16:11.180Z,0
2019-03-20T00:16:37.273Z,0
2019-03-20T00:17:04.080Z,0
2019-03-20T00:17:30.213Z,0
2019-03-20T00:17:56.309Z,0
2019-03-20T00:18:22.448Z,0
2019-03-20T00:18:48.542Z,0
2019-03-20T00:19:14.636Z,0
2019-03-20T00:19:40.756Z,0
2019-03-20T00:20:06.852Z,0
2019-03-20T00:20:32.968Z,0
2019-03-20T00:20:59.064Z,0
2019-03-20T00:21:25.151Z,0
2019-03-20T00:21:51.246Z,0
2019-03-20T00:22:17.338Z,0
2019-03-20T00:22:43.579Z,0
2019-03-20T00:23:09.651Z,0
2019-03-20T00:23:35.743Z,0
2019-03-20T00:24:01.835Z,0
2019-03-20T00:24:27.928Z,0
2019-03-20T00:24:54.048Z,0
2019-03-20T00:25:20.139Z,0
2019-03-20T00:25:46.232Z,0
2019-03-20T00:26:12.352Z,0
2019-03-20T00:26:38.446Z,0
2019-03-20T00:27:04.563Z,0
2019-03-20T00:27:30.654Z,0
2019-03-20T00:27:56.748Z,0
2019-03-20T00:28:22.842Z,0
2019-03-20T00:28:48.933Z,0
2019-03-20T00:29:15.037Z,0
2019-03-20T00:29:41.118Z,0
2019-03-20T00:30:07.238Z,0
2019-03-20T00:30:33.329Z,0
2019-03-20T00:30:59.423Z,0
2019-03-20T00:31:25.543Z,0
2019-03-20T00:31:51.633Z,0
2019-03-20T00:32:17.727Z,0
2019-03-20T00:32:43.820Z,0
2019-03-20T00:33:09.938Z,0
2019-03-20T00:33:36.031Z,0
2019-03-20T00:34:02.150Z,0
2019-03-20T00:34:28.241Z,0
2019-03-20T00:35:00.684Z,0
2019-03-20T00:35:21.439Z,0
2019-03-20T00:35:47.532Z,0
2019-03-20T00:36:13.653Z,0
2019-03-20T00:36:39.748Z,0
2019-03-20T00:37:05.838Z,0
2019-03-20T00:37:31.932Z,0
2019-03-20T00:37:58.026Z,0
2019-03-20T00:38:24.118Z,0
2019-03-20T00:38:50.212Z,0
2019-03-20T00:39:16.305Z,0
2019-03-20T00:39:42.397Z,0
2019-03-20T00:40:08.515Z,0
2019-03-20T00:40:34.605Z,0
2019-03-20T00:41:00.697Z,0
2019-03-20T00:41:26.788Z,0
2019-03-20T00:41:52.878Z,0
2019-03-20T00:42:18.971Z,0
2019-03-20T00:42:46.015Z,0
2019-03-20T00:43:12.105Z,0
2019-03-20T00:43:38.188Z,0
2019-03-20T00:44:04.281Z,0
2019-03-20T00:44:30.375Z,0
2019-03-20T00:44:56.466Z,0
2019-03-20T00:45:22.613Z,0
2019-03-20T00:45:48.725Z,0
2019-03-20T00:46:14.819Z,0
2019-03-20T00:46:40.917Z,0
2019-03-20T00:47:07.004Z,0
2019-03-20T00:47:33.098Z,0
2019-03-20T00:47:59.192Z,0
2019-03-20T00:48:25.273Z,0
2019-03-20T00:48:51.366Z,0
2019-03-20T00:49:17.481Z,0
2019-03-20T00:49:43.575Z,0
2019-03-20T00:50:09.667Z,0
2019-03-20T00:50:35.784Z,0
2019-03-20T00:51:01.878Z,0
2019-03-20T00:51:27.995Z,0
2019-03-20T00:51:54.091Z,0
2019-03-20T00:52:20.196Z,0
2019-03-20T00:52:46.276Z,0
2019-03-20T00:53:12.369Z,0
2019-03-20T00:53:38.461Z,0
2019-03-20T00:54:04.551Z,0
2019-03-20T00:54:30.645Z,0
2019-03-20T00:54:56.738Z,0
2019-03-20T00:55:22.831Z,0
2019-03-20T00:55:48.925Z,0
2019-03-20T00:56:15.019Z,0
2019-03-20T00:56:41.113Z,0
2019-03-20T00:57:07.204Z,0
2019-03-20T00:57:33.296Z,0
2019-03-20T00:57:59.393Z,0
2019-03-20T00:58:25.480Z,0
2019-03-20T00:58:51.574Z,0
2019-03-20T00:59:17.668Z,0
2019-03-20T00:59:43.763Z,0
2019-03-20T01:00:09.854Z,0
2019-03-20T01:00:35.947Z,0
2019-03-20T01:01:02.040Z,0
2019-03-20T01:01:28.132Z,0
2019-03-20T01:01:54.226Z,0
2019-03-20T01:02:20.319Z,0
2019-03-20T01:02:46.414Z,0
2019-03-20T01:03:12.508Z,0
2019-03-20T01:03:38.600Z,0
2019-03-20T01:04:04.694Z,0
2019-03-20T01:04:30.784Z,0
2019-03-20T01:04:56.902Z,0
2019-03-20T01:05:24.974Z,0
2019-03-20T01:05:51.094Z,0
2019-03-20T01:06:17.191Z,0
2019-03-20T01:06:43.279Z,0
2019-03-20T01:07:10.235Z,0
2019-03-20T01:07:36.342Z,0
2019-03-20T01:08:02.433Z,0
2019-03-20T01:08:28.555Z,0
2019-03-20T01:08:54.671Z,0
2019-03-20T01:09:20.763Z,0
2019-03-20T01:09:46.855Z,0
2019-03-20T01:10:12.949Z,0
2019-03-20T01:10:39.043Z,0
2019-03-20T01:11:05.135Z,0
2019-03-20T01:11:31.227Z,0
2019-03-20T01:11:57.344Z,0
2019-03-20T01:12:23.438Z,0
2019-03-20T01:12:49.529Z,0
2019-03-20T01:13:15.621Z,0
2019-03-20T01:13:41.716Z,0
2019-03-20T01:14:07.810Z,0
2019-03-20T01:14:33.903Z,0
2019-03-20T01:15:00.029Z,0
2019-03-20T01:15:26.116Z,0
2019-03-20T01:15:52.208Z,0
2019-03-20T01:16:18.325Z,0
2019-03-20T01:16:44.419Z,0
2019-03-20T01:17:10.512Z,0
2019-03-20T01:17:36.605Z,0
2019-03-20T01:18:02.695Z,0
2019-03-20T01:18:28.789Z,0
2019-03-20T01:18:54.906Z,0
2019-03-20T01:19:20.998Z,0
2019-03-20T01:19:47.091Z,0
2019-03-20T01:20:13.183Z,0
2019-03-20T01:20:39.275Z,0
2019-03-20T01:21:05.368Z,0
2019-03-20T01:21:31.462Z,0
2019-03-20T01:21:57.579Z,0
2019-03-20T01:22:23.672Z,0
2019-03-20T01:22:49.792Z,0
2019-03-20T01:23:15.907Z,0
2019-03-20T01:23:42.000Z,0
2019-03-20T01:24:08.098Z,0
2019-03-20T01:24:34.190Z,0
2019-03-20T01:25:00.333Z,0
2019-03-20T01:25:26.369Z,0
2019-03-20T01:25:52.487Z,0
2019-03-20T01:26:18.582Z,0
2019-03-20T01:26:44.677Z,0
2019-03-20T01:27:10.770Z,0
2019-03-20T01:27:36.867Z,0
2019-03-20T01:28:02.958Z,0
2019-03-20T01:28:29.051Z,0
2019-03-20T01:28:55.142Z,0
2019-03-20T01:29:21.238Z,0
2019-03-20T01:29:47.354Z,0
2019-03-20T01:30:13.446Z,0
2019-03-20T01:30:39.553Z,0
2019-03-20T01:31:05.633Z,0
2019-03-20T01:31:31.724Z,0
2019-03-20T01:31:57.820Z,0
2019-03-20T01:32:23.912Z,0
2019-03-20T01:32:50.005Z,0
2019-03-20T01:33:16.125Z,0
2019-03-20T01:33:42.217Z,0
2019-03-20T01:34:09.299Z,0
2019-03-20T01:34:35.394Z,0
2019-03-20T01:35:01.489Z,0
2019-03-20T01:35:29.447Z,0
2019-03-20T01:35:55.566Z,0
2019-03-20T01:36:21.659Z,0
2019-03-20T01:36:47.776Z,0
2019-03-20T01:37:13.867Z,0
2019-03-20T01:37:39.962Z,0
2019-03-20T01:38:06.053Z,0
2019-03-20T01:38:32.149Z,0
2019-03-20T01:38:58.240Z,0
2019-03-20T01:39:24.332Z,0
2019-03-20T01:39:50.424Z,0
2019-03-20T01:40:16.568Z,0
2019-03-20T01:40:43.632Z,0
2019-03-20T01:41:09.717Z,0
2019-03-20T01:41:38.116Z,0
2019-03-20T01:42:02.914Z,0
2019-03-20T01:42:28.998Z,0
2019-03-20T01:42:55.113Z,0
2019-03-20T01:43:21.205Z,0
2019-03-20T01:43:47.296Z,0
2019-03-20T01:44:13.393Z,0
2019-03-20T01:44:39.483Z,0
2019-03-20T01:45:05.639Z,0
2019-03-20T01:45:31.877Z,0
2019-03-20T01:45:57.966Z,0
2019-03-20T01:46:24.058Z,0
2019-03-20T01:46:50.175Z,0
2019-03-20T01:47:17.258Z,0
2019-03-20T01:47:43.350Z,0
2019-03-20T01:48:09.452Z,0
2019-03-20T01:48:35.543Z,0
2019-03-20T01:49:01.634Z,0
2019-03-20T01:49:27.728Z,0
2019-03-20T01:49:53.815Z,0
2019-03-20T01:50:19.906Z,0
2019-03-20T01:50:46.024Z,0
2019-03-20T01:51:12.145Z,0
2019-03-20T01:51:38.263Z,0
2019-03-20T01:52:04.383Z,0
2019-03-20T01:52:30.475Z,0
2019-03-20T01:52:56.567Z,0
2019-03-20T01:53:22.659Z,0
2019-03-20T01:53:48.755Z,0
2019-03-20T01:54:14.847Z,0
2019-03-20T01:54:40.941Z,0
2019-03-20T01:55:07.056Z,0
2019-03-20T01:55:33.199Z,0
2019-03-20T01:56:01.505Z,0
2019-03-20T01:56:26.452Z,0
2019-03-20T01:56:52.545Z,0
2019-03-20T01:57:18.637Z,0
2019-03-20T01:57:44.729Z,0
2019-03-20T01:58:10.906Z,0
2019-03-20T01:58:37.015Z,0
2019-03-20T01:59:03.124Z,0
2019-03-20T01:59:29.257Z,0
2019-03-20T01:59:55.358Z,0
2019-03-20T02:00:21.469Z,0
2019-03-20T02:00:47.615Z,0
2019-03-20T02:01:13.721Z,0
2019-03-20T02:01:39.821Z,0
2019-03-20T02:02:05.929Z,0
2019-03-20T02:02:32.037Z,0
2019-03-20T02:02:58.195Z,0
2019-03-20T02:03:24.259Z,0
2019-03-20T02:03:51.356Z,0
2019-03-20T02:04:17.469Z,0
2019-03-20T02:04:43.564Z,0
2019-03-20T02:05:09.682Z,0
2019-03-20T02:05:36.808Z,0
2019-03-20T02:06:02.918Z,0
2019-03-20T02:06:29.024Z,0
2019-03-20T02:06:55.123Z,0
2019-03-20T02:07:21.235Z,0
2019-03-20T02:07:47.369Z,0
2019-03-20T02:08:13.481Z,0
2019-03-20T02:08:39.582Z,0
2019-03-20T02:09:05.693Z,0
2019-03-20T02:09:31.796Z,0
2019-03-20T02:09:57.906Z,0
2019-03-20T02:10:24.008Z,0
2019-03-20T02:10:50.111Z,0
2019-03-20T02:11:16.221Z,0
2019-03-20T02:11:42.323Z,0
2019-03-20T02:12:08.425Z,0
2019-03-20T02:12:34.532Z,0
2019-03-20T02:13:00.634Z,0
2019-03-20T02:13:26.738Z,0
2019-03-20T02:13:52.851Z,0
2019-03-20T02:14:18.952Z,0
2019-03-20T02:14:45.064Z,0
2019-03-20T02:15:11.174Z,0
2019-03-20T02:15:39.628Z,0
2019-03-20T02:16:05.384Z,0
2019-03-20T02:16:31.522Z,0
2019-03-20T02:16:57.655Z,0
2019-03-20T02:17:23.763Z,0
2019-03-20T02:17:49.927Z,0
2019-03-20T02:18:16.040Z,0
2019-03-20T02:18:42.141Z,0
2019-03-20T02:19:08.254Z,0
2019-03-20T02:19:34.359Z,0
2019-03-20T02:20:00.475Z,0
2019-03-20T02:20:26.606Z,0
2019-03-20T02:20:52.716Z,0
2019-03-20T02:21:18.823Z,0
2019-03-20T02:21:44.965Z,0
2019-03-20T02:22:11.071Z,0
2019-03-20T02:22:37.181Z,0
2019-03-20T02:23:03.298Z,0
2019-03-20T02:23:29.396Z,0
2019-03-20T02:23:55.536Z,0
2019-03-20T02:24:21.648Z,0
2019-03-20T02:24:47.751Z,0
2019-03-20T02:25:13.860Z,0
2019-03-20T02:25:40.959Z,0
2019-03-20T02:26:07.072Z,0
2019-03-20T02:26:33.177Z,0
2019-03-20T02:26:59.290Z,0
2019-03-20T02:27:25.391Z,0
2019-03-20T02:27:51.496Z,0
2019-03-20T02:28:17.632Z,0
2019-03-20T02:28:43.751Z,0
2019-03-20T02:29:09.857Z,0
2019-03-20T02:29:35.994Z,0
2019-03-20T02:30:02.102Z,0
2019-03-20T02:30:28.247Z,0
2019-03-20T02:30:54.342Z,0
2019-03-20T02:31:20.436Z,0
2019-03-20T02:31:46.572Z,0
2019-03-20T02:32:12.682Z,0
2019-03-20T02:32:38.799Z,0
2019-03-20T02:33:04.927Z,0
2019-03-20T02:33:31.123Z,0
2019-03-20T02:33:57.228Z,0
2019-03-20T02:34:23.369Z,0
2019-03-20T02:34:49.481Z,0
2019-03-20T02:35:15.660Z,0
2019-03-20T02:35:51.067Z,0
2019-03-20T02:36:09.881Z,0
2019-03-20T02:36:35.988Z,0
2019-03-20T02:37:02.149Z,0
2019-03-20T02:37:28.316Z,0
2019-03-20T02:37:54.420Z,0
2019-03-20T02:38:20.551Z,0
2019-03-20T02:38:46.713Z,0
2019-03-20T02:39:12.823Z,0
2019-03-20T02:39:38.984Z,0
2019-03-20T02:40:05.091Z,0
2019-03-20T02:40:31.205Z,0
2019-03-20T02:40:57.317Z,0
2019-03-20T02:41:23.446Z,0
2019-03-20T02:41:49.575Z,0
2019-03-20T02:42:15.726Z,0
2019-03-20T02:42:41.858Z,0
2019-03-20T02:43:07.953Z,0
2019-03-20T02:43:34.060Z,0
2019-03-20T02:44:00.203Z,0
2019-03-20T02:44:26.326Z,0
2019-03-20T02:44:52.430Z,0
2019-03-20T02:45:18.567Z,0
2019-03-20T02:45:44.674Z,0
2019-03-20T02:46:10.871Z,0
2019-03-20T02:46:36.980Z,0
2019-03-20T02:47:03.082Z,0
2019-03-20T02:47:29.186Z,0
2019-03-20T02:47:55.323Z,0
2019-03-20T02:48:21.460Z,0
2019-03-20T02:48:47.596Z,0
2019-03-20T02:49:13.787Z,0
2019-03-20T02:49:39.978Z,0
2019-03-20T02:50:06.109Z,0
2019-03-20T02:50:32.242Z,0
2019-03-20T02:50:58.352Z,0
2019-03-20T02:51:24.457Z,0
2019-03-20T02:51:50.565Z,0
2019-03-20T02:52:17.691Z,0
2019-03-20T02:52:43.805Z,0
2019-03-20T02:53:09.899Z,0
2019-03-20T02:53:36.008Z,0
2019-03-20T02:54:02.110Z,0
2019-03-20T02:54:28.247Z,0
2019-03-20T02:54:54.355Z,0
2019-03-20T02:55:20.459Z,0
2019-03-20T02:55:46.566Z,0
2019-03-20T02:56:12.695Z,0
2019-03-20T02:56:38.802Z,0
2019-03-20T02:57:04.911Z,0
2019-03-20T02:57:32.025Z,0
2019-03-20T02:57:58.129Z,0
2019-03-20T02:58:24.233Z,0
2019-03-20T02:58:50.337Z,0
2019-03-20T02:59:16.503Z,0
2019-03-20T02:59:42.635Z,0
2019-03-20T03:00:08.778Z,0
2019-03-20T03:00:34.904Z,0
2019-03-20T03:01:01.045Z,0
2019-03-20T03:01:27.152Z,0
2019-03-20T03:01:53.251Z,0
2019-03-20T03:02:19.419Z,0
2019-03-20T03:02:45.558Z,0
2019-03-20T03:03:11.699Z,0
2019-03-20T03:03:37.836Z,0
2019-03-20T03:04:04.011Z,0
2019-03-20T03:04:30.083Z,0
2019-03-20T03:04:56.180Z,0
2019-03-20T03:05:22.291Z,0
2019-03-20T03:05:48.399Z,0
2019-03-20T03:06:17.466Z,0
2019-03-20T03:06:43.641Z,0
2019-03-20T03:07:09.784Z,0
2019-03-20T03:07:35.889Z,0
2019-03-20T03:08:01.994Z,0
2019-03-20T03:08:28.108Z,0
2019-03-20T03:08:54.213Z,0
2019-03-20T03:09:20.327Z,0
2019-03-20T03:09:46.476Z,0
2019-03-20T03:10:12.624Z,0
2019-03-20T03:10:38.758Z,0
2019-03-20T03:11:05.844Z,0
2019-03-20T03:11:31.980Z,0
2019-03-20T03:11:58.146Z,0
2019-03-20T03:12:24.307Z,0
2019-03-20T03:12:50.424Z,0
2019-03-20T03:13:16.536Z,0
2019-03-20T03:13:42.650Z,0
2019-03-20T03:14:08.799Z,0
2019-03-20T03:14:34.936Z,0
2019-03-20T03:15:01.040Z,0
2019-03-20T03:15:27.175Z,0
2019-03-20T03:15:53.318Z,0
2019-03-20T03:16:19.455Z,0
2019-03-20T03:16:45.562Z,0
2019-03-20T03:17:11.662Z,0
2019-03-20T03:17:37.771Z,0
2019-03-20T03:18:03.906Z,0
2019-03-20T03:18:30.048Z,0
2019-03-20T03:18:56.151Z,0
2019-03-20T03:19:22.318Z,0
2019-03-20T03:19:48.451Z,0
2019-03-20T03:20:14.558Z,0
2019-03-20T03:20:40.690Z,0
2019-03-20T03:21:06.852Z,0
2019-03-20T03:21:32.972Z,0
2019-03-20T03:21:59.077Z,0
2019-03-20T03:22:25.185Z,0
2019-03-20T03:22:51.298Z,0
2019-03-20T03:23:17.403Z,0
2019-03-20T03:23:43.562Z,0
2019-03-20T03:24:09.679Z,0
2019-03-20T03:24:35.786Z,0
2019-03-20T03:25:01.889Z,0
2019-03-20T03:25:27.990Z,0
2019-03-20T03:25:55.105Z,0
2019-03-20T03:26:21.226Z,0
2019-03-20T03:26:47.385Z,0
2019-03-20T03:27:13.543Z,0
2019-03-20T03:27:39.711Z,0
2019-03-20T03:28:05.822Z,0
2019-03-20T03:28:31.925Z,0
2019-03-20T03:28:58.053Z,0
2019-03-20T03:29:24.225Z,0
2019-03-20T03:29:50.337Z,0
2019-03-20T03:30:16.625Z,0
2019-03-20T03:30:42.883Z,0
2019-03-20T03:31:09.030Z,0
2019-03-20T03:31:35.199Z,0
2019-03-20T03:32:01.335Z,0
2019-03-20T03:32:27.505Z,0
2019-03-20T03:32:53.621Z,0
2019-03-20T03:33:19.723Z,0
2019-03-20T03:33:45.951Z,0
2019-03-20T03:34:12.061Z,0
2019-03-20T03:34:38.171Z,0
2019-03-20T03:35:04.301Z,0
2019-03-20T03:35:32.383Z,0
2019-03-20T03:35:58.519Z,0
2019-03-20T03:36:27.206Z,0
2019-03-20T03:36:53.307Z,0
2019-03-20T03:37:19.417Z,0
2019-03-20T03:37:45.559Z,0
2019-03-20T03:38:11.659Z,0
2019-03-20T03:38:37.798Z,0
2019-03-20T03:39:03.937Z,0
2019-03-20T03:39:30.066Z,0
2019-03-20T03:39:56.171Z,0
2019-03-20T03:40:22.314Z,0
2019-03-20T03:40:48.445Z,0
2019-03-20T03:41:14.557Z,0
2019-03-20T03:41:40.662Z,0
2019-03-20T03:42:06.775Z,0
2019-03-20T03:42:32.910Z,0
2019-03-20T03:42:59.044Z,0
2019-03-20T03:43:25.142Z,0
2019-03-20T03:43:51.255Z,0
2019-03-20T03:44:17.385Z,0
2019-03-20T03:44:43.485Z,0
2019-03-20T03:45:09.622Z,0
2019-03-20T03:45:35.725Z,0
2019-03-20T03:46:01.835Z,0
2019-03-20T03:46:28.011Z,0
2019-03-20T03:46:54.177Z,0
2019-03-20T03:47:20.277Z,0
2019-03-20T03:47:46.391Z,0
2019-03-20T03:48:12.551Z,0
2019-03-20T03:48:38.653Z,0
2019-03-20T03:49:04.784Z,0
2019-03-20T03:49:30.923Z,0
2019-03-20T03:49:57.037Z,0
2019-03-20T03:50:23.168Z,0
2019-03-20T03:50:49.271Z,0
2019-03-20T03:51:15.383Z,0
2019-03-20T03:51:41.522Z,0
2019-03-20T03:52:07.692Z,0
2019-03-20T03:52:33.837Z,0
2019-03-20T03:52:59.950Z,0
2019-03-20T03:53:26.080Z,0
2019-03-20T03:53:52.186Z,0
2019-03-20T03:54:18.293Z,0
2019-03-20T03:54:44.408Z,0
2019-03-20T03:55:10.583Z,0
2019-03-20T03:55:36.748Z,0
2019-03-20T03:56:02.860Z,0
2019-03-20T03:56:28.965Z,0
2019-03-20T03:56:55.074Z,0
2019-03-20T03:57:21.180Z,0
2019-03-20T03:57:47.293Z,0
2019-03-20T03:58:13.403Z,0
2019-03-20T03:58:39.559Z,0
2019-03-20T03:59:05.660Z,0
2019-03-20T03:59:31.762Z,0
2019-03-20T03:59:57.892Z,0
2019-03-20T04:00:24.028Z,0
2019-03-20T04:00:50.141Z,0
2019-03-20T04:01:16.249Z,0
2019-03-20T04:01:42.353Z,0
2019-03-20T04:02:08.485Z,0
2019-03-20T04:02:34.659Z,0
2019-03-20T04:03:00.733Z,0
2019-03-20T04:03:26.836Z,0
2019-03-20T04:03:52.969Z,0
2019-03-20T04:04:19.077Z,0
2019-03-20T04:04:45.214Z,0
2019-03-20T04:05:11.352Z,0
2019-03-20T04:05:37.580Z,0
2019-03-20T04:06:03.761Z,0
2019-03-20T04:06:35.752Z,0
2019-03-20T04:06:58.095Z,0
2019-03-20T04:07:24.236Z,0
2019-03-20T04:07:50.366Z,0
2019-03-20T04:08:16.501Z,0
2019-03-20T04:08:42.643Z,0
2019-03-20T04:09:08.776Z,0
2019-03-20T04:09:34.890Z,0
2019-03-20T04:10:00.997Z,0
2019-03-20T04:10:27.120Z,0
2019-03-20T04:10:53.225Z,0
2019-03-20T04:11:19.335Z,0
2019-03-20T04:11:45.478Z,0
2019-03-20T04:12:11.632Z,0
2019-03-20T04:12:37.744Z,0
2019-03-20T04:13:03.899Z,0
2019-03-20T04:13:30.003Z,0
2019-03-20T04:13:56.139Z,0
2019-03-20T04:14:22.275Z,0
2019-03-20T04:14:48.405Z,0
2019-03-20T04:15:14.566Z,0
2019-03-20T04:15:41.671Z,0
2019-03-20T04:16:07.809Z,0
2019-03-20T04:16:33.945Z,0
2019-03-20T04:17:00.056Z,0
2019-03-20T04:17:26.167Z,0
2019-03-20T04:17:52.290Z,0
2019-03-20T04:18:18.460Z,0
2019-03-20T04:18:44.624Z,0
2019-03-20T04:19:10.733Z,0
2019-03-20T04:19:36.851Z,0
2019-03-20T04:20:02.986Z,0
2019-03-20T04:20:29.087Z,0
2019-03-20T04:20:55.199Z,0
2019-03-20T04:21:21.366Z,0
2019-03-20T04:21:47.496Z,0
2019-03-20T04:22:13.601Z,0
2019-03-20T04:22:39.738Z,0
2019-03-20T04:23:05.907Z,0
2019-03-20T04:23:32.063Z,0
2019-03-20T04:23:58.202Z,0
2019-03-20T04:24:24.305Z,0
2019-03-20T04:24:50.415Z,0
2019-03-20T04:25:16.551Z,0
2019-03-20T04:25:42.695Z,0
2019-03-20T04:26:08.862Z,0
2019-03-20T04:26:34.984Z,0
2019-03-20T04:27:01.081Z,0
2019-03-20T04:27:27.209Z,0
2019-03-20T04:27:53.477Z,0
2019-03-20T04:28:19.631Z,0
2019-03-20T04:28:45.787Z,0
2019-03-20T04:29:11.908Z,0
2019-03-20T04:29:38.001Z,0
2019-03-20T04:30:04.109Z,0
2019-03-20T04:30:30.278Z,0
2019-03-20T04:30:56.394Z,0
2019-03-20T04:31:22.498Z,0
2019-03-20T04:31:48.618Z,0
2019-03-20T04:32:14.784Z,0
2019-03-20T04:32:40.917Z,0
2019-03-20T04:33:07.027Z,0
2019-03-20T04:33:33.137Z,0
2019-03-20T04:33:59.264Z,0
2019-03-20T04:34:25.369Z,0
2019-03-20T04:34:51.504Z,0
2019-03-20T04:35:17.677Z,0
2019-03-20T04:35:43.780Z,0
2019-03-20T04:36:09.920Z,0
2019-03-20T04:36:47.087Z,0
2019-03-20T04:37:04.134Z,0
2019-03-20T04:37:30.237Z,0
2019-03-20T04:37:56.335Z,0
2019-03-20T04:38:22.443Z,0
2019-03-20T04:38:48.556Z,0
2019-03-20T04:39:14.653Z,0
2019-03-20T04:39:40.767Z,0
2019-03-20T04:40:06.871Z,0
2019-03-20T04:40:33.010Z,0
2019-03-20T04:40:59.117Z,0
2019-03-20T04:41:25.260Z,0
2019-03-20T04:41:51.360Z,0
2019-03-20T04:42:17.465Z,0
2019-03-20T04:42:43.569Z,0
2019-03-20T04:43:09.682Z,0
2019-03-20T04:43:35.788Z,0
2019-03-20T04:44:01.919Z,0
2019-03-20T04:44:28.028Z,0
2019-03-20T04:44:54.129Z,0
2019-03-20T04:45:21.225Z,0
2019-03-20T04:45:47.325Z,0
2019-03-20T04:46:13.431Z,0
2019-03-20T04:46:39.560Z,0
2019-03-20T04:47:05.668Z,0
2019-03-20T04:47:31.775Z,0
2019-03-20T04:47:57.887Z,0
2019-03-20T04:48:23.989Z,0
2019-03-20T04:48:50.100Z,0
2019-03-20T04:49:16.217Z,0
2019-03-20T04:49:42.319Z,0
2019-03-20T04:50:08.430Z,0
2019-03-20T04:50:34.534Z,0
2019-03-20T04:51:00.668Z,0
2019-03-20T04:51:26.773Z,0
2019-03-20T04:51:52.890Z,0
2019-03-20T04:52:18.997Z,0
2019-03-20T04:52:45.109Z,0
2019-03-20T04:53:11.209Z,0
2019-03-20T04:53:37.320Z,0
2019-03-20T04:54:03.448Z,0
2019-03-20T04:54:29.561Z,0
2019-03-20T04:54:55.669Z,0
2019-03-20T04:55:21.804Z,0
2019-03-20T04:55:47.919Z,0
2019-03-20T04:56:14.020Z,0
2019-03-20T04:56:40.135Z,0
2019-03-20T04:57:06.239Z,4
2019-03-20T04:57:32.373Z,4
2019-03-20T04:57:59.478Z,4
2019-03-20T04:58:25.581Z,4
2019-03-20T04:58:51.683Z,0
2019-03-20T04:59:17.792Z,0
2019-03-20T04:59:43.895Z,0
2019-03-20T05:00:09.996Z,4
2019-03-20T05:00:36.107Z,4
2019-03-20T05:01:02.240Z,4
2019-03-20T05:01:28.342Z,4
2019-03-20T05:01:54.447Z,4
2019-03-20T05:02:20.583Z,4
2019-03-20T05:02:46.680Z,4
2019-03-20T05:03:12.789Z,4
2019-03-20T05:03:38.900Z,4
2019-03-20T05:04:05.004Z,8
2019-03-20T05:04:31.119Z,4
2019-03-20T05:04:57.260Z,8
2019-03-20T05:05:23.369Z,4
2019-03-20T05:05:49.476Z,8
2019-03-20T05:06:15.585Z,8
2019-03-20T05:06:41.687Z,8
2019-03-20T05:07:09.828Z,8
2019-03-20T05:07:35.934Z,8
2019-03-20T05:08:02.040Z,12
2019-03-20T05:08:28.147Z,12
2019-03-20T05:08:54.826Z,12
2019-03-20T05:09:20.965Z,16
2019-03-20T05:09:47.078Z,16
2019-03-20T05:10:13.191Z,16
2019-03-20T05:10:39.298Z,20
2019-03-20T05:11:05.402Z,20
2019-03-20T05:11:31.520Z,20
2019-03-20T05:11:57.631Z,24
2019-03-20T05:12:23.717Z,24
2019-03-20T05:12:49.816Z,28
2019-03-20T05:13:15.922Z,28
2019-03-20T05:13:42.055Z,32
2019-03-20T05:14:08.161Z,36
2019-03-20T05:14:34.306Z,36
2019-03-20T05:15:00.408Z,40
2019-03-20T05:15:26.557Z,44
2019-03-20T05:15:52.661Z,48
2019-03-20T05:16:18.780Z,52
2019-03-20T05:16:44.877Z,56
2019-03-20T05:17:10.984Z,60
2019-03-20T05:17:37.089Z,64
2019-03-20T05:18:03.197Z,68
2019-03-20T05:18:29.308Z,72
2019-03-20T05:18:55.411Z,80
2019-03-20T05:19:21.550Z,84
2019-03-20T05:19:47.651Z,92
2019-03-20T05:20:13.764Z,96
2019-03-20T05:20:39.872Z,100
2019-03-20T05:21:05.975Z,112
2019-03-20T05:21:32.079Z,116
2019-03-20T05:21:58.182Z,120
2019-03-20T05:22:24.289Z,128
2019-03-20T05:22:50.413Z,140
2019-03-20T05:23:17.510Z,148
2019-03-20T05:23:43.614Z,156
2019-03-20T05:24:09.725Z,164
2019-03-20T05:24:35.839Z,172
2019-03-20T05:25:01.976Z,180
2019-03-20T05:25:28.081Z,192
2019-03-20T05:25:54.188Z,204
2019-03-20T05:26:20.303Z,208
2019-03-20T05:26:46.409Z,220
2019-03-20T05:27:12.520Z,232
2019-03-20T05:27:38.657Z,240
2019-03-20T05:28:04.767Z,256
2019-03-20T05:28:30.868Z,268
2019-03-20T05:28:56.978Z,280
2019-03-20T05:29:23.118Z,296
2019-03-20T05:29:49.225Z,308
2019-03-20T05:30:15.354Z,320
2019-03-20T05:30:41.475Z,336
2019-03-20T05:31:07.579Z,348
2019-03-20T05:31:33.691Z,368
2019-03-20T05:31:59.798Z,384
2019-03-20T05:32:25.905Z,396
2019-03-20T05:32:52.042Z,416
2019-03-20T05:33:18.160Z,432
2019-03-20T05:33:44.273Z,448
2019-03-20T05:34:10.377Z,464
2019-03-20T05:34:36.489Z,480
2019-03-20T05:35:02.592Z,504
2019-03-20T05:35:28.702Z,524
2019-03-20T05:35:54.804Z,552
2019-03-20T05:36:20.945Z,572
2019-03-20T05:36:47.052Z,588
2019-03-20T05:37:14.178Z,604
2019-03-20T05:37:40.290Z,620
2019-03-20T05:38:06.419Z,636
2019-03-20T05:38:32.541Z,648
2019-03-20T05:38:58.896Z,660
2019-03-20T05:39:25.928Z,672
2019-03-20T05:39:52.064Z,688
2019-03-20T05:40:18.199Z,704
2019-03-20T05:40:44.329Z,728
2019-03-20T05:41:10.443Z,752
2019-03-20T05:41:36.554Z,792
2019-03-20T05:42:02.710Z,824
2019-03-20T05:42:28.817Z,856
2019-03-20T05:42:54.923Z,884
2019-03-20T05:43:21.035Z,904
2019-03-20T05:43:47.138Z,928
2019-03-20T05:44:13.242Z,944
2019-03-20T05:44:39.350Z,972
2019-03-20T05:45:05.552Z,996
2019-03-20T05:45:31.655Z,1024
2019-03-20T05:45:57.754Z,1052
2019-03-20T05:46:23.894Z,1088
2019-03-20T05:46:49.996Z,1124
2019-03-20T05:47:16.101Z,1160
2019-03-20T05:47:42.220Z,1200
2019-03-20T05:48:08.327Z,1240
2019-03-20T05:48:34.467Z,1276
2019-03-20T05:49:00.572Z,1312
2019-03-20T05:49:26.673Z,1344
2019-03-20T05:49:52.791Z,1376
2019-03-20T05:50:18.905Z,1408
2019-03-20T05:50:45.009Z,1440
2019-03-20T05:51:11.119Z,1472
2019-03-20T05:51:37.229Z,1508
2019-03-20T05:52:03.336Z,1548
2019-03-20T05:52:29.437Z,1588
2019-03-20T05:52:55.553Z,1628
2019-03-20T05:53:21.657Z,1668
2019-03-20T05:53:47.767Z,1712
2019-03-20T05:54:13.877Z,1752
2019-03-20T05:54:39.990Z,1788
2019-03-20T05:55:06.094Z,1832
2019-03-20T05:55:32.203Z,1864
2019-03-20T05:55:58.337Z,1896
2019-03-20T05:56:24.448Z,1924
2019-03-20T05:56:50.551Z,1948
2019-03-20T05:57:17.665Z,1976
2019-03-20T05:57:43.788Z,2008
2019-03-20T05:58:09.877Z,2044
2019-03-20T05:58:35.981Z,2080
2019-03-20T05:59:02.095Z,2124
2019-03-20T05:59:28.200Z,2172
2019-03-20T05:59:54.302Z,2224
2019-03-20T06:00:20.409Z,2272
2019-03-20T06:00:46.511Z,2332
2019-03-20T06:01:12.639Z,2396
2019-03-20T06:01:38.767Z,2472
2019-03-20T06:02:04.880Z,2560
2019-03-20T06:02:31.104Z,2656
2019-03-20T06:02:57.209Z,2760
2019-03-20T06:03:23.311Z,2876
2019-03-20T06:03:49.524Z,2996
2019-03-20T06:04:15.631Z,3100
2019-03-20T06:04:41.734Z,3224
2019-03-20T06:05:07.843Z,3348
2019-03-20T06:05:33.986Z,3476
2019-03-20T06:06:00.094Z,3596
2019-03-20T06:06:26.197Z,3724
2019-03-20T06:06:52.304Z,3856
2019-03-20T06:07:21.697Z,3980
2019-03-20T06:07:46.498Z,4104
2019-03-20T06:08:12.601Z,4232
2019-03-20T06:08:38.714Z,4384
2019-03-20T06:09:04.821Z,4548
2019-03-20T06:09:30.958Z,4700
2019-03-20T06:09:57.075Z,4828
2019-03-20T06:10:23.177Z,4928
2019-03-20T06:10:49.284Z,5004
2019-03-20T06:11:15.397Z,5052
2019-03-20T06:11:41.502Z,5096
2019-03-20T06:12:07.612Z,5136
2019-03-20T06:12:33.719Z,5180
2019-03-20T06:12:59.828Z,5236
2019-03-20T06:13:25.947Z,5296
2019-03-20T06:13:52.056Z,5380
2019-03-20T06:14:18.170Z,5476
2019-03-20T06:14:44.277Z,5556
2019-03-20T06:15:10.387Z,5624
2019-03-20T06:15:36.493Z,5704
2019-03-20T06:16:02.604Z,5792
2019-03-20T06:16:28.715Z,5848
2019-03-20T06:16:54.820Z,5916
2019-03-20T06:17:20.926Z,5972
2019-03-20T06:17:47.206Z,6000
2019-03-20T06:18:13.320Z,6028
2019-03-20T06:18:39.469Z,6020
2019-03-20T06:19:05.577Z,5956
2019-03-20T06:19:31.679Z,5888
2019-03-20T06:19:57.781Z,5808
2019-03-20T06:20:23.897Z,5720
2019-03-20T06:20:49.995Z,5588